Time;durP1;ratioP1;P1;durP2;ratioP2;P2;SDS_P1;SDS_P2;PMS_P1;PMS_P2;Temp;Humidity;BMP_temperature;BMP_pressure;BME280_temperature;BME280_humidity;BME280_pressure;Samples;Min_cycle;Max_cycle;Signal;HPM_P1;HPM_P2
2023/06/14 00:00:35;;;;;;;0.30;0.30;;;;;;;22.18;100.00;99067.53;5071830;28;20642;-68
2023/06/14 00:03:04;;;;;;;0.70;0.70;;;;;;;22.04;100.00;99049.56;5071290;28;20208;-68
2023/06/14 00:05:32;;;;;;;0.67;0.67;;;;;;;22.13;100.00;99060.09;5071995;28;20274;-68
2023/06/14 00:08:00;;;;;;;0.53;0.53;;;;;;;22.05;100.00;99049.44;5071753;28;20235;-68
2023/06/14 00:10:30;;;;;;;0.50;0.50;;;;;;;22.10;100.00;99060.34;5071473;28;20196;-68
2023/06/14 00:12:57;;;;;;;0.40;0.40;;;;;;;22.09;100.00;99063.09;5071577;28;20222;-68
2023/06/14 00:15:24;;;;;;;0.40;0.40;;;;;;;22.05;100.00;99053.84;5071256;28;20203;-68
2023/06/14 00:17:51;;;;;;;0.40;0.40;;;;;;;22.04;100.00;99062.63;5071630;28;20253;-68
2023/06/14 00:20:19;;;;;;;0.50;0.50;;;;;;;22.04;100.00;99060.84;5070931;28;20245;-68
2023/06/14 00:22:46;;;;;;;0.67;0.67;;;;;;;22.03;100.00;99064.44;5071204;28;20200;-68
2023/06/14 00:25:13;;;;;;;0.33;0.33;;;;;;;22.04;100.00;99070.44;5071141;28;20232;-69
2023/06/14 00:27:39;;;;;;;0.30;0.30;;;;;;;22.06;100.00;99056.34;5070465;28;20235;-68
2023/06/14 00:30:07;;;;;;;0.40;0.40;;;;;;;22.08;100.00;99053.59;5070267;28;20207;-68
2023/06/14 00:32:34;;;;;;;0.60;0.60;;;;;;;22.08;100.00;99051.81;5070615;28;20230;-68
2023/06/14 00:35:01;;;;;;;0.80;0.80;;;;;;;22.01;100.00;99042.81;5069782;28;20204;-68
2023/06/14 00:37:29;;;;;;;0.50;0.50;;;;;;;22.03;100.00;99050.53;5071451;28;20216;-68
2023/06/14 00:39:56;;;;;;;0.63;0.63;;;;;;;22.03;100.00;99048.75;5070823;28;20192;-68
2023/06/14 00:42:26;;;;;;;0.57;0.57;;;;;;;21.93;100.00;99038.25;5070326;28;20203;-68
2023/06/14 00:44:53;;;;;;;0.53;0.53;;;;;;;21.95;100.00;99046.78;5071037;28;20752;-68
2023/06/14 00:47:20;;;;;;;0.43;0.43;;;;;;;21.89;100.00;99043.84;5070946;28;20702;-68
2023/06/14 00:49:47;;;;;;;0.40;0.40;;;;;;;21.81;100.00;99027.97;5069526;28;20210;-68
2023/06/14 00:52:14;;;;;;;0.50;0.50;;;;;;;21.90;100.00;99038.50;5068758;28;20261;-68
2023/06/14 00:54:43;;;;;;;0.40;0.40;;;;;;;21.82;100.00;99014.78;5070300;28;20641;-68
2023/06/14 00:57:11;;;;;;;0.40;0.40;;;;;;;21.91;100.00;99029.69;5070081;28;20203;-68
2023/06/14 00:59:44;;;;;;;0.30;0.30;;;;;;;21.87;100.00;99033.47;5070215;28;20650;-68
2023/06/14 01:02:11;;;;;;;0.30;0.30;;;;;;;21.87;100.00;99033.47;5069846;28;20210;-68
2023/06/14 01:04:40;;;;;;;0.40;0.40;;;;;;;21.85;100.00;99029.34;5069615;28;20548;-68
2023/06/14 01:07:14;;;;;;;0.57;0.57;;;;;;;21.87;100.00;99027.47;5069542;28;20311;-68
2023/06/14 01:09:57;;;;;;;0.40;0.40;;;;;;;21.73;100.00;99033.81;5070199;28;20287;-68
2023/06/14 01:12:32;;;;;;;0.40;0.40;;;;;;;21.68;100.00;99040.34;5070103;28;20210;-68
2023/06/14 01:15:01;;;;;;;0.70;0.70;;;;;;;21.61;100.00;99031.38;5070445;28;20721;-68
2023/06/14 01:17:31;;;;;;;0.53;0.53;;;;;;;21.56;100.00;99023.91;5069922;28;20208;-68
2023/06/14 01:19:59;;;;;;;0.67;0.67;;;;;;;21.50;100.00;99034.84;5069958;28;20210;-68
2023/06/14 01:22:27;;;;;;;0.80;0.80;;;;;;;21.45;100.00;99031.78;5069473;28;20199;-68
2023/06/14 01:24:56;;;;;;;0.53;0.53;;;;;;;21.36;100.00;99033.31;5070046;28;20207;-68
2023/06/14 01:27:28;;;;;;;0.40;0.40;;;;;;;21.28;100.00;99016.66;5069644;28;20631;-68
2023/06/14 01:29:57;;;;;;;0.70;0.70;;;;;;;21.37;100.00;99028.94;5070040;28;20608;-68
2023/06/14 01:32:25;;;;;;;0.50;0.50;;;;;;;21.34;100.00;99037.00;5070599;28;20585;-68
2023/06/14 01:34:52;;;;;;;0.50;0.50;;;;;;;21.32;100.00;99041.53;5069998;28;20257;-68
2023/06/14 01:37:20;;;;;;;0.40;0.40;;;;;;;21.26;100.00;99031.59;5070161;28;20206;-68
2023/06/14 01:39:49;;;;;;;0.53;0.53;;;;;;;21.28;100.00;99034.91;5069749;28;20223;-68
2023/06/14 01:42:18;;;;;;;0.40;0.40;;;;;;;21.31;100.00;99032.03;5070129;28;20231;-68
2023/06/14 01:44:45;;;;;;;0.77;0.77;;;;;;;21.26;100.00;99021.16;5068063;28;20207;-68
2023/06/14 01:47:13;;;;;;;0.57;0.57;;;;;;;21.31;100.00;99025.06;5070470;28;20722;-68
2023/06/14 01:49:40;;;;;;;0.60;0.60;;;;;;;21.33;100.00;99028.34;5066597;28;20195;-68
2023/06/14 01:52:10;;;;;;;0.63;0.63;;;;;;;21.30;100.00;99027.78;5069720;28;20224;-68
2023/06/14 01:54:42;;;;;;;0.60;0.60;;;;;;;21.25;100.00;99028.16;5070373;28;20199;-68
2023/06/14 01:57:10;;;;;;;0.50;0.50;;;;;;;21.25;100.00;99035.97;5066512;28;20289;-68
2023/06/14 01:59:38;;;;;;;0.30;0.30;;;;;;;21.28;100.00;99034.91;5069976;28;20222;-68
2023/06/14 02:02:05;;;;;;;0.60;0.60;;;;;;;21.30;100.00;99027.78;5068711;28;20656;-68
2023/06/14 02:04:32;;;;;;;0.50;0.50;;;;;;;21.33;100.00;99032.75;5069914;28;20257;-68
2023/06/14 02:06:59;;;;;;;0.70;0.70;;;;;;;21.30;100.00;99038.19;5070295;28;20265;-68
2023/06/14 02:09:26;;;;;;;0.60;0.60;;;;;;;21.23;100.00;99031.81;5068668;28;20205;-68
2023/06/14 02:11:53;;;;;;;0.40;0.40;;;;;;;21.22;100.00;99024.97;5066918;28;20258;-69
2023/06/14 02:14:20;;;;;;;0.40;0.40;;;;;;;21.21;100.00;99026.72;5069004;28;20253;-69
2023/06/14 02:16:49;;;;;;;0.60;0.60;;;;;;;21.13;100.00;99020.50;5069768;28;20648;-68
2023/06/14 02:19:16;;;;;;;0.50;0.50;;;;;;;21.20;100.00;99026.84;5072889;28;20200;-68
2023/06/14 02:21:43;;;;;;;0.50;0.50;;;;;;;21.16;100.00;99028.91;5073545;28;20207;-68
2023/06/14 02:24:10;;;;;;;0.40;0.40;;;;;;;21.19;100.00;99033.03;5073707;28;20208;-68
2023/06/14 02:26:38;;;;;;;0.50;0.50;;;;;;;21.23;100.00;99042.25;5073589;28;20751;-68
2023/06/14 02:29:05;;;;;;;0.40;0.40;;;;;;;21.24;100.00;99038.69;5072300;28;20235;-69
2023/06/14 02:31:32;;;;;;;0.53;0.53;;;;;;;21.21;100.00;99045.00;5072838;28;20199;-68
2023/06/14 02:34:00;;;;;;;0.50;0.50;;;;;;;21.22;100.00;99043.22;5073601;28;20204;-68
2023/06/14 02:36:29;;;;;;;0.53;0.53;;;;;;;21.17;100.00;99037.50;5073195;28;20249;-68
2023/06/14 02:38:57;;;;;;;0.40;0.40;;;;;;;20.90;100.00;99022.25;5072684;28;20204;-68
2023/06/14 02:41:24;;;;;;;0.37;0.37;;;;;;;20.90;100.00;99030.09;5073069;28;20192;-68
2023/06/14 02:43:51;;;;;;;0.50;0.50;;;;;;;20.72;100.00;99006.28;5072932;28;20207;-68
2023/06/14 02:46:17;;;;;;;0.40;0.40;;;;;;;20.85;100.00;99033.03;5072583;28;20200;-68
2023/06/14 02:48:45;;;;;;;0.40;0.40;;;;;;;20.81;100.00;99025.56;5073589;28;20629;-68
2023/06/14 02:51:13;;;;;;;0.37;0.37;;;;;;;20.82;100.00;99041.09;5071597;28;20293;-68
2023/06/14 02:53:40;;;;;;;0.60;0.60;;;;;;;20.80;100.00;99040.41;5071579;28;20580;-68
2023/06/14 02:56:07;;;;;;;0.93;0.93;;;;;;;20.79;100.00;99043.94;5072099;28;20253;-68
2023/06/14 02:58:34;;;;;;;0.50;0.50;;;;;;;20.81;100.00;99044.63;5073167;28;20203;-68
2023/06/14 03:01:03;;;;;;;0.40;0.40;;;;;;;20.80;100.00;99040.41;5070258;28;20314;-68
2023/06/14 03:03:30;;;;;;;0.53;0.53;;;;;;;20.78;100.00;99050.09;5072679;28;20211;-68
2023/06/14 03:05:57;;;;;;;0.90;0.90;;;;;;;20.67;100.00;99044.06;5072669;28;20204;-68
2023/06/14 03:08:28;;;;;;;0.57;0.57;;;;;;;20.74;100.00;99055.66;5072203;28;20227;-68
2023/06/14 03:10:56;;;;;;;0.40;0.40;;;;;;;20.77;100.00;99056.25;5072183;28;20310;-68
2023/06/14 03:13:23;;;;;;;0.50;0.50;;;;;;;20.79;100.00;99067.38;5072636;28;20286;-68
2023/06/14 03:15:50;;;;;;;0.40;0.40;;;;;;;20.80;100.00;99068.22;5072799;28;20283;-68
2023/06/14 03:18:19;;;;;;;0.47;0.47;;;;;;;20.82;100.00;99069.75;5072345;28;20254;-68
2023/06/14 03:20:46;;;;;;;0.80;0.80;;;;;;;20.84;100.00;99078.25;5072123;28;20748;-68
2023/06/14 03:23:13;;;;;;;0.40;0.40;;;;;;;20.83;100.00;99071.41;5072140;28;20203;-68
2023/06/14 03:25:42;;;;;;;0.50;0.50;;;;;;;20.83;100.00;99081.00;5071838;28;20196;-68
2023/06/14 03:28:09;;;;;;;0.40;0.40;;;;;;;20.83;100.00;99075.78;5065544;28;20234;-68
2023/06/14 03:30:35;;;;;;;0.53;0.53;;;;;;;20.83;100.00;99079.22;5071037;28;20203;-68
2023/06/14 03:33:02;;;;;;;0.50;0.50;;;;;;;20.83;100.00;99076.63;5072162;28;20265;-68
2023/06/14 03:35:30;;;;;;;0.47;0.47;;;;;;;20.84;100.00;99075.66;5069973;28;20211;-68
2023/06/14 03:37:56;;;;;;;0.73;0.73;;;;;;;20.84;100.00;99078.25;5072324;28;20209;-68
2023/06/14 03:40:26;;;;;;;0.53;0.53;;;;;;;20.85;100.00;99079.94;5069839;28;20205;-68
2023/06/14 03:42:55;;;;;;;0.40;0.40;;;;;;;20.86;100.00;99092.03;5072149;28;20211;-68
2023/06/14 03:45:21;;;;;;;0.60;0.60;;;;;;;20.74;100.00;99073.91;5072295;28;20207;-68
2023/06/14 03:47:50;;;;;;;0.40;0.40;;;;;;;20.87;100.00;99088.44;5071529;28;20242;-68
2023/06/14 03:50:18;;;;;;;0.40;0.40;;;;;;;20.87;100.00;99100.69;5071752;28;20246;-68
2023/06/14 03:52:44;;;;;;;0.50;0.50;;;;;;;20.87;100.00;99104.09;5067080;28;20268;-68
2023/06/14 03:55:13;;;;;;;0.50;0.50;;;;;;;20.86;100.00;99102.44;5065770;28;20246;-68
2023/06/14 03:57:40;;;;;;;0.57;0.57;;;;;;;20.86;100.00;99099.84;5067828;28;20200;-68
2023/06/14 04:00:10;;;;;;;0.50;0.50;;;;;;;20.84;100.00;99091.28;5070555;28;20218;-68
2023/06/14 04:02:37;;;;;;;0.40;0.40;;;;;;;20.92;100.00;99101.97;5071915;28;20277;-68
2023/06/14 04:05:05;;;;;;;0.50;0.50;;;;;;;20.91;100.00;99104.69;5072055;28;20691;-69
2023/06/14 04:07:32;;;;;;;0.50;0.50;;;;;;;20.93;100.00;99102.81;5071815;28;20223;-68
2023/06/14 04:09:58;;;;;;;0.40;0.40;;;;;;;20.97;100.00;99108.63;5071656;28;20298;-68
2023/06/14 04:12:25;;;;;;;0.50;0.50;;;;;;;20.99;100.00;99106.69;5071761;28;20215;-68
2023/06/14 04:14:52;;;;;;;0.50;0.50;;;;;;;21.02;100.00;99106.47;5070973;28;20202;-68
2023/06/14 04:17:20;;;;;;;0.50;0.50;;;;;;;21.02;100.00;99109.91;5069557;28;20201;-68
2023/06/14 04:19:47;;;;;;;0.53;0.53;;;;;;;21.07;100.00;99109.53;5071935;28;20624;-68
2023/06/14 04:22:14;;;;;;;0.60;0.60;;;;;;;21.09;100.00;99107.66;5070775;28;20667;-68
2023/06/14 04:24:42;;;;;;;1.03;1.03;;;;;;;21.11;100.00;99111.00;5069811;28;20215;-68
2023/06/14 04:27:09;;;;;;;0.50;0.50;;;;;;;21.15;100.00;99110.66;5069814;28;20259;-69
2023/06/14 04:29:35;;;;;;;0.63;0.63;;;;;;;21.17;100.00;99111.34;5071292;28;20273;-68
2023/06/14 04:32:02;;;;;;;0.70;0.70;;;;;;;21.15;100.00;99118.47;5071166;28;20268;-68
2023/06/14 04:34:33;;;;;;;1.03;1.03;;;;;;;21.15;100.00;99107.19;5070507;28;20208;-68
2023/06/14 04:37:01;;;;;;;0.50;0.50;;;;;;;21.18;100.00;99117.38;5070379;28;20204;-68
2023/06/14 04:39:28;;;;;;;0.60;0.60;;;;;;;21.21;100.00;99114.53;5068259;28;20207;-68
2023/06/14 04:41:56;;;;;;;0.40;0.40;;;;;;;21.20;100.00;99115.47;5071063;28;20217;-68
2023/06/14 04:44:29;;;;;;;0.93;0.63;;;;;;;21.22;100.00;99124.88;5070116;28;20230;-68
2023/06/14 04:46:58;;;;;;;0.40;0.40;;;;;;;21.22;100.00;99105.78;5070934;28;20200;-68
2023/06/14 04:49:27;;;;;;;0.67;0.67;;;;;;;21.27;100.00;99111.44;5070749;28;20200;-68
2023/06/14 04:51:59;;;;;;;0.50;0.50;;;;;;;21.30;100.00;99113.81;5065504;28;20259;-65
2023/06/14 04:54:25;;;;;;;0.30;0.30;;;;;;;21.35;100.00;99130.78;5067240;28;20208;-66
2023/06/14 04:56:53;;;;;;;0.40;0.40;;;;;;;21.34;100.00;99133.50;5068220;28;20230;-66
2023/06/14 04:59:19;;;;;;;0.50;0.50;;;;;;;21.37;100.00;99128.03;5069516;28;20200;-66
2023/06/14 05:01:48;;;;;;;0.50;0.50;;;;;;;21.42;100.00;99136.34;5068709;28;20211;-66
2023/06/14 05:04:15;;;;;;;0.73;0.73;;;;;;;21.44;100.00;99129.22;5069465;28;20214;-66
2023/06/14 05:06:44;;;;;;;0.60;0.60;;;;;;;21.46;100.00;99135.13;5069351;28;20204;-66
2023/06/14 05:09:13;;;;;;;0.77;0.77;;;;;;;21.53;100.00;99138.91;5069708;28;20200;-66
2023/06/14 05:11:42;;;;;;;0.50;0.50;;;;;;;21.61;100.00;99141.75;5069589;28;20203;-65
2023/06/14 05:14:08;;;;;;;0.60;0.60;;;;;;;21.68;100.00;99142.91;5067709;28;20211;-65
2023/06/14 05:16:35;;;;;;;0.40;0.40;;;;;;;21.69;100.00;99147.19;5069389;28;20220;-67
2023/06/14 05:19:04;;;;;;;0.43;0.43;;;;;;;21.75;100.00;99149.31;5069907;28;20626;-68
2023/06/14 05:21:31;;;;;;;0.43;0.43;;;;;;;21.81;100.00;99148.81;5065297;28;20798;-67
2023/06/14 05:23:59;;;;;;;0.70;0.70;;;;;;;21.83;100.00;99146.94;5068481;28;20215;-67
2023/06/14 05:26:28;;;;;;;0.50;0.50;;;;;;;21.85;100.00;99149.41;5068477;28;20235;-67
2023/06/14 05:28:56;;;;;;;0.43;0.43;;;;;;;21.93;100.00;99158.31;5065610;28;20236;-70
2023/06/14 05:31:23;;;;;;;0.40;0.40;;;;;;;21.96;100.00;99146.78;5067333;28;20290;-71
2023/06/14 05:33:50;;;;;;;0.53;0.53;;;;;;;22.09;100.00;99151.84;5067580;28;20199;-70
2023/06/14 05:36:17;;;;;;;0.57;0.57;;;;;;;22.07;100.00;99161.59;5067722;28;20265;-70
2023/06/14 05:38:44;;;;;;;0.50;0.50;;;;;;;22.15;100.00;99161.78;5068410;28;20207;-70
2023/06/14 05:41:11;;;;;;;0.70;0.70;;;;;;;22.23;100.00;99170.66;5068680;28;20215;-71
2023/06/14 05:43:39;;;;;;;0.50;0.50;;;;;;;22.31;100.00;99162.19;5068530;28;20208;-71
2023/06/14 05:46:06;;;;;;;0.70;0.70;;;;;;;22.44;100.00;99166.28;5068915;28;20269;-71
2023/06/14 05:48:33;;;;;;;0.40;0.40;;;;;;;22.58;100.00;99173.00;5069182;28;20681;-71
2023/06/14 05:51:00;;;;;;;0.97;0.53;;;;;;;22.68;100.00;99176.50;5068959;28;20195;-71
2023/06/14 05:53:26;;;;;;;0.50;0.50;;;;;;;22.78;100.00;99177.41;5068710;28;20633;-71
2023/06/14 05:55:54;;;;;;;0.70;0.70;;;;;;;22.83;100.00;99185.69;5068769;28;20196;-69
2023/06/14 05:58:21;;;;;;;0.40;0.40;;;;;;;22.77;100.00;99186.22;5068879;28;20196;-70
2023/06/14 06:00:50;;;;;;;0.50;0.50;;;;;;;22.76;100.00;99184.56;5067243;28;20258;-70
2023/06/14 06:03:17;;;;;;;0.63;0.63;;;;;;;22.78;100.00;99182.63;5068401;28;20223;-71
2023/06/14 06:05:44;;;;;;;0.60;0.60;;;;;;;22.81;100.00;99182.38;5067777;28;20200;-71
2023/06/14 06:08:11;;;;;;;0.40;0.40;;;;;;;22.91;100.00;99187.66;5067440;28;20247;-71
2023/06/14 06:10:37;;;;;;;0.53;0.53;;;;;;;23.00;100.00;99172.00;5068779;28;20755;-71
2023/06/14 06:13:04;;;;;;;0.50;0.50;;;;;;;23.19;100.00;99175.69;5069034;28;20644;-70
2023/06/14 06:15:31;;;;;;;1.30;1.30;;;;;;;23.33;100.00;99177.94;5068302;28;20257;-71
2023/06/14 06:17:59;;;;;;;0.43;0.43;;;;;;;23.52;100.00;99185.91;5066868;28;20204;-70
2023/06/14 06:20:27;;;;;;;0.47;0.43;;;;;;;23.78;100.00;99184.44;5067574;28;20207;-71
2023/06/14 06:22:55;;;;;;;0.50;0.50;;;;;;;24.00;100.00;99191.25;5068095;28;20627;-71
2023/06/14 06:25:22;;;;;;;0.60;0.60;;;;;;;24.15;100.00;99186.47;5067760;28;20299;-70
2023/06/14 06:27:48;;;;;;;0.47;0.47;;;;;;;24.36;96.76;99192.41;5067948;28;20227;-71
2023/06/14 06:30:15;;;;;;;0.50;0.50;;;;;;;24.57;96.90;99193.09;5068159;28;20204;-70
2023/06/14 06:32:42;;;;;;;0.50;0.50;;;;;;;24.65;95.70;99190.59;5068295;28;20204;-71
2023/06/14 06:35:12;;;;;;;0.80;0.80;;;;;;;24.56;90.44;99197.50;5068672;28;20204;-71
2023/06/14 06:37:39;;;;;;;0.40;0.40;;;;;;;24.57;91.42;99190.47;5068489;28;20203;-70
2023/06/14 06:40:07;;;;;;;0.57;0.57;;;;;;;24.71;91.60;99205.78;5069819;28;20200;-72
2023/06/14 06:42:34;;;;;;;0.37;0.37;;;;;;;24.95;91.23;99198.28;5069176;28;20394;-71
2023/06/14 06:45:01;;;;;;;0.50;0.50;;;;;;;25.16;91.77;99205.97;5067912;28;20220;-72
2023/06/14 06:47:28;;;;;;;1.27;0.70;;;;;;;25.50;92.73;99203.66;5067604;28;20208;-72
2023/06/14 06:49:55;;;;;;;0.57;0.57;;;;;;;25.83;89.52;99205.69;5066279;28;20201;-73
2023/06/14 06:52:23;;;;;;;0.50;0.50;;;;;;;25.94;86.35;99202.88;5068509;28;20200;-72
2023/06/14 06:54:54;;;;;;;1.03;0.77;;;;;;;25.71;87.40;99206.88;5068265;28;20733;-73
2023/06/14 06:57:22;;;;;;;0.67;0.60;;;;;;;25.88;87.93;99203.44;5067370;28;20626;-73
2023/06/14 06:59:49;;;;;;;0.50;0.50;;;;;;;25.78;85.70;99202.69;5067933;28;20210;-72
2023/06/14 07:02:16;;;;;;;0.40;0.40;;;;;;;25.80;85.29;99208.63;5068032;28;20202;-72
2023/06/14 07:04:42;;;;;;;0.33;0.33;;;;;;;25.69;85.46;99208.78;5067255;28;20308;-72
2023/06/14 07:07:09;;;;;;;0.60;0.60;;;;;;;25.58;83.82;99207.22;5071729;28;20703;-72
2023/06/14 07:09:38;;;;;;;0.60;0.60;;;;;;;25.39;84.61;99169.69;5068726;28;20976;-73
2023/06/14 07:12:05;;;;;;;0.60;0.60;;;;;;;25.67;86.13;99205.50;5069787;28;20204;-73
2023/06/14 07:14:32;;;;;;;0.40;0.40;;;;;;;25.59;87.99;99208.00;5070364;28;20292;-72
2023/06/14 07:16:59;;;;;;;0.50;0.50;;;;;;;25.28;83.88;99198.75;5063670;28;20200;-72
2023/06/14 07:19:26;;;;;;;0.50;0.50;;;;;;;25.28;85.52;99202.19;5059719;28;20204;-72
2023/06/14 07:21:52;;;;;;;0.50;0.50;;;;;;;25.24;85.24;99215.72;5059593;28;20208;-72
2023/06/14 07:24:21;;;;;;;0.70;0.70;;;;;;;25.29;86.48;99195.16;5063889;28;20195;-71
2023/06/14 07:26:49;;;;;;;0.40;0.40;;;;;;;25.38;86.96;99194.28;5069743;28;20240;-71
2023/06/14 07:29:16;;;;;;;0.63;0.63;;;;;;;25.25;85.82;99173.63;5068128;28;20212;-72
2023/06/14 07:31:43;;;;;;;0.43;0.43;;;;;;;25.30;86.82;99191.56;5067024;28;20284;-72
2023/06/14 07:34:10;;;;;;;0.50;0.50;;;;;;;25.28;86.15;99196.13;5065796;28;20273;-72
2023/06/14 07:36:37;;;;;;;0.80;0.80;;;;;;;25.14;84.51;99193.97;5065452;28;20668;-72
2023/06/14 07:39:06;;;;;;;0.30;0.30;;;;;;;25.14;84.72;99199.22;5070550;28;20249;-73
2023/06/14 07:41:32;;;;;;;0.33;0.33;;;;;;;24.84;84.36;99192.41;5070037;28;20624;-73
2023/06/14 07:44:01;;;;;;;0.50;0.50;;;;;;;24.75;87.72;99196.63;5068631;28;20214;-73
2023/06/14 07:46:27;;;;;;;1.13;1.10;;;;;;;24.79;87.94;99186.69;5070712;28;20208;-73
2023/06/14 07:48:54;;;;;;;0.50;0.50;;;;;;;24.98;88.52;99202.41;5069967;28;20765;-73
2023/06/14 07:51:22;;;;;;;0.63;0.63;;;;;;;24.94;87.01;99201.88;5070510;28;20211;-72
2023/06/14 07:53:49;;;;;;;0.30;0.30;;;;;;;24.70;86.96;99172.66;5070370;28;20841;-74
2023/06/14 07:56:16;;;;;;;0.40;0.40;;;;;;;24.94;87.00;99194.00;5069434;28;20204;-73
2023/06/14 07:58:43;;;;;;;0.80;0.80;;;;;;;25.01;88.75;99189.84;5070604;28;20203;-72
2023/06/14 08:01:11;;;;;;;0.70;0.70;;;;;;;25.10;87.51;99197.84;5069113;28;20729;-73
2023/06/14 08:03:38;;;;;;;0.40;0.40;;;;;;;25.08;84.34;99192.72;5067507;28;20980;-73
2023/06/14 08:06:05;;;;;;;0.60;0.60;;;;;;;25.21;87.40;99192.41;5070629;28;20648;-73
2023/06/14 08:08:32;;;;;;;0.40;0.40;;;;;;;25.21;87.02;99208.16;5060253;28;20220;-72
2023/06/14 08:10:59;;;;;;;0.40;0.40;;;;;;;25.50;88.80;99201.03;5062761;28;20249;-73
2023/06/14 08:13:26;;;;;;;0.47;0.47;;;;;;;25.73;84.40;99209.34;5070217;28;20197;-72
2023/06/14 08:15:52;;;;;;;0.50;0.50;;;;;;;25.85;83.56;99213.44;5069705;28;20215;-72
2023/06/14 08:18:21;;;;;;;0.50;0.50;;;;;;;25.99;82.70;99216.38;5070810;28;20203;-73
2023/06/14 08:20:47;;;;;;;1.67;1.00;;;;;;;26.13;81.98;99219.47;5068844;28;20199;-71
2023/06/14 08:23:15;;;;;;;0.60;0.60;;;;;;;26.27;83.00;99219.00;5069279;28;20205;-73
2023/06/14 08:25:42;;;;;;;0.57;0.57;;;;;;;26.34;83.54;99225.28;5066536;28;20204;-70
2023/06/14 08:28:09;;;;;;;0.60;0.60;;;;;;;26.37;83.03;99222.34;5069831;28;20281;-64
2023/06/14 08:30:36;;;;;;;0.90;0.90;;;;;;;26.26;82.21;99222.59;5069598;28;20210;-67
2023/06/14 08:33:02;;;;;;;1.10;0.83;;;;;;;26.32;83.67;99227.25;5068735;28;20223;-69
2023/06/14 08:35:31;;;;;;;0.53;0.53;;;;;;;26.35;82.40;99232.19;5071030;28;20661;-69
2023/06/14 08:37:58;;;;;;;0.80;0.60;;;;;;;26.47;81.90;99236.25;5067295;28;20409;-71
2023/06/14 08:40:25;;;;;;;0.87;0.70;;;;;;;26.60;83.04;99236.69;5070000;28;20204;-70
2023/06/14 08:42:53;;;;;;;0.53;0.53;;;;;;;26.75;81.25;99234.34;5066470;28;20341;-72
2023/06/14 08:45:21;;;;;;;0.80;0.80;;;;;;;26.96;81.26;99238.31;5070480;28;20200;-72
2023/06/14 08:47:51;;;;;;;1.07;0.83;;;;;;;26.95;78.94;99241.91;5069390;28;20200;-71
2023/06/14 08:50:21;;;;;;;0.80;0.80;;;;;;;26.93;81.90;99243.06;5065737;28;20220;-70
2023/06/14 08:52:54;;;;;;;0.47;0.47;;;;;;;27.03;80.99;99239.34;5067588;28;20212;-69
2023/06/14 08:55:25;;;;;;;0.40;0.40;;;;;;;27.25;82.35;99231.91;5070119;28;20265;-69
2023/06/14 08:57:54;;;;;;;0.70;0.60;;;;;;;27.40;80.84;99235.63;5068573;28;20663;-71
2023/06/14 09:00:22;;;;;;;0.60;0.60;;;;;;;27.56;80.40;99233.13;5068985;28;20200;-72
2023/06/14 09:02:48;;;;;;;0.33;0.33;;;;;;;27.37;78.11;99230.66;5068134;28;20733;-71
2023/06/14 09:05:18;;;;;;;0.87;0.87;;;;;;;27.22;77.95;99238.31;5070141;28;20653;-73
2023/06/14 09:07:44;;;;;;;0.80;0.80;;;;;;;26.95;77.19;99236.66;5067031;28;20207;-71
2023/06/14 09:10:14;;;;;;;0.80;0.80;;;;;;;27.07;81.44;99218.81;5069805;28;20219;-71
2023/06/14 09:12:42;;;;;;;1.13;1.13;;;;;;;27.24;79.25;99225.03;5067828;28;20652;-73
2023/06/14 09:15:10;;;;;;;0.57;0.57;;;;;;;27.45;80.03;99226.31;5068632;28;20211;-70
2023/06/14 09:17:37;;;;;;;0.50;0.50;;;;;;;27.67;80.01;99216.19;5068652;28;20200;-71
2023/06/14 09:20:09;;;;;;;0.80;0.80;;;;;;;27.71;77.17;99223.63;5057965;28;20257;-70
2023/06/14 09:22:36;;;;;;;0.50;0.50;;;;;;;27.81;77.28;99229.59;5070516;28;20204;-69
2023/06/14 09:25:03;;;;;;;0.70;0.70;;;;;;;27.88;76.52;99229.78;5070362;28;20230;-70
2023/06/14 09:27:31;;;;;;;0.60;0.60;;;;;;;27.98;74.26;99220.72;5068876;28;20235;-70
2023/06/14 09:29:58;;;;;;;0.63;0.63;;;;;;;28.02;74.51;99213.31;5069450;28;20679;-71
2023/06/14 09:32:25;;;;;;;0.50;0.50;;;;;;;27.82;74.88;99220.69;5069879;28;20649;-72
2023/06/14 09:34:52;;;;;;;0.67;0.67;;;;;;;27.72;75.41;99212.09;5068852;28;20196;-69
2023/06/14 09:37:29;;;;;;;0.70;0.70;;;;;;;27.72;77.23;99209.47;5069448;28;20300;-71
2023/06/14 09:39:56;;;;;;;0.50;0.50;;;;;;;27.55;74.60;99207.75;5069945;28;20249;-70
2023/06/14 09:42:25;;;;;;;0.80;0.80;;;;;;;27.56;76.09;99212.03;5069795;28;20641;-72
2023/06/14 09:44:56;;;;;;;0.37;0.37;;;;;;;27.23;75.73;99202.31;5068602;28;20214;-72
2023/06/14 09:47:23;;;;;;;0.70;0.70;;;;;;;27.08;75.85;99204.66;5069569;28;20254;-70
2023/06/14 09:49:54;;;;;;;0.50;0.50;;;;;;;27.16;78.35;99202.09;5064162;28;20696;-70
2023/06/14 09:52:22;;;;;;;0.67;0.67;;;;;;;27.12;77.66;99204.22;5069710;28;20219;-70
2023/06/14 09:54:49;;;;;;;0.57;0.57;;;;;;;27.09;76.99;99199.28;5069491;28;20207;-70
2023/06/14 09:57:21;;;;;;;0.80;0.80;;;;;;;27.18;77.11;99200.13;5070038;28;20207;-70
2023/06/14 09:59:49;;;;;;;0.67;0.67;;;;;;;27.19;76.66;99195.69;5069518;28;20201;-70
2023/06/14 10:02:24;;;;;;;0.90;0.90;;;;;;;27.25;76.62;99189.78;5069953;28;20274;-70
2023/06/14 10:05:00;;;;;;;0.43;0.43;;;;;;;27.34;80.20;99194.94;5066211;28;20313;-71
2023/06/14 10:07:31;;;;;;;0.60;0.60;;;;;;;27.24;79.87;99180.28;5070308;28;20672;-70
2023/06/14 10:09:58;;;;;;;0.70;0.70;;;;;;;27.39;79.47;99183.94;5068495;28;20775;-71
2023/06/14 10:12:26;;;;;;;0.50;0.50;;;;;;;27.50;77.72;99181.06;5068316;28;20210;-70
2023/06/14 10:14:54;;;;;;;0.50;0.50;;;;;;;27.72;78.97;99187.56;5068305;28;20624;-71
2023/06/14 10:17:33;;;;;;;0.70;0.70;;;;;;;27.77;76.11;99185.25;5066941;28;20254;-72
2023/06/14 10:20:15;;;;;;;0.80;0.80;;;;;;;27.88;76.54;99187.63;5066057;28;20214;-71
2023/06/14 10:22:45;;;;;;;0.73;0.73;;;;;;;27.90;75.00;99194.38;5068882;28;20253;-71
2023/06/14 10:25:14;;;;;;;0.77;0.77;;;;;;;27.89;73.20;99174.25;5069064;28;20398;-71
2023/06/14 10:27:46;;;;;;;1.60;0.77;;;;;;;28.10;76.25;99193.13;5068776;28;20308;-75
2023/06/14 10:30:16;;;;;;;1.10;1.10;;;;;;;28.25;73.40;99179.28;5064591;28;20216;-73
2023/06/14 10:33:09;;;;;;;0.97;0.97;;;;;;;27.78;71.12;99186.91;5068368;28;20200;-73
2023/06/14 10:35:36;;;;;;;0.83;0.83;;;;;;;27.66;74.67;99183.75;5068375;28;20200;-74
2023/06/14 10:38:10;;;;;;;0.80;0.80;;;;;;;27.86;75.57;99185.13;5068253;28;20216;-74
2023/06/14 10:40:37;;;;;;;0.90;0.90;;;;;;;28.00;75.66;99186.31;5072564;28;20200;-75
2023/06/14 10:43:22;;;;;;;0.40;0.40;;;;;;;28.22;74.37;99185.72;5072187;28;20572;-74
2023/06/14 10:46:17;;;;;;;0.50;0.50;;;;;;;28.52;73.46;99181.63;5072711;28;20642;-75
2023/06/14 10:48:46;;;;;;;0.90;0.90;;;;;;;28.58;73.55;99162.47;5070185;28;20287;-75
2023/06/14 10:51:22;;;;;;;1.07;1.07;;;;;;;28.89;76.90;99167.91;5072522;28;20195;-75
2023/06/14 10:53:49;;;;;;;0.65;0.65;;;;;;;29.03;73.15;99165.41;5072384;28;20219;-75
2023/06/14 10:56:28;;;;;;;1.30;0.80;;;;;;;29.10;70.98;99166.38;5072199;28;20204;-75
2023/06/14 10:58:56;;;;;;;0.82;0.82;;;;;;;29.05;70.45;99168.69;5072721;28;20200;-76
2023/06/14 11:01:33;;;;;;;1.00;1.00;;;;;;;29.07;71.98;99156.16;5071541;28;20284;-76
2023/06/14 11:04:09;;;;;;;0.55;0.55;;;;;;;29.25;72.71;99155.13;5072150;28;20290;-76
2023/06/14 11:06:47;;;;;;;0.63;0.63;;;;;;;29.28;70.90;99152.97;5071274;28;20298;-74
2023/06/14 11:09:42;;;;;;;1.00;1.00;;;;;;;29.19;69.95;99154.78;5072089;28;20624;-76
2023/06/14 11:12:11;;;;;;;0.50;0.50;;;;;;;28.73;69.58;99160.00;5066656;28;20216;-75
2023/06/14 11:14:39;;;;;;;0.60;0.60;;;;;;;28.77;70.84;99154.25;5072285;28;20196;-74
2023/06/14 11:17:06;;;;;;;1.23;1.23;;;;;;;28.78;71.70;99149.78;5069856;28;20322;-76
2023/06/14 11:19:34;;;;;;;1.08;1.08;;;;;;;28.75;71.84;99148.31;5072437;28;20192;-74
2023/06/14 11:22:01;;;;;;;0.75;0.75;;;;;;;28.68;70.25;99147.34;5071987;28;20265;-75
2023/06/14 11:24:28;;;;;;;0.98;0.98;;;;;;;28.63;70.82;99152.25;5072213;28;20208;-73
2023/06/14 11:26:57;;;;;;;2.05;1.45;;;;;;;28.41;71.82;99142.38;5071057;28;20196;-73
2023/06/14 11:29:24;;;;;;;0.70;0.70;;;;;;;28.43;72.88;99137.78;5069616;28;20668;-75
2023/06/14 11:31:51;;;;;;;0.98;0.98;;;;;;;28.51;71.50;99137.75;5069713;28;20694;-75
2023/06/14 11:34:19;;;;;;;0.82;0.82;;;;;;;28.44;70.98;99142.03;5070880;28;20254;-75